createdAt,value
2022-08-28T00:02:38.568Z,20.20
2022-08-28T00:06:27.919Z,19.30
2022-08-28T00:10:19.112Z,18.30
2022-08-28T00:14:01.252Z,20.70
2022-08-28T00:17:53.077Z,20.60
2022-08-28T00:21:42.395Z,20.00
2022-08-28T00:25:33.025Z,17.90
2022-08-28T00:29:22.038Z,19.90
2022-08-28T00:33:10.955Z,19.60
2022-08-28T00:37:03.718Z,19.60
2022-08-28T00:40:52.660Z,19.40
2022-08-28T00:44:47.562Z,19.20
2022-08-28T00:48:36.729Z,20.60
2022-08-28T00:52:28.361Z,16.70
2022-08-28T00:56:17.492Z,19.50
2022-08-28T01:00:06.483Z,19.80
2022-08-28T01:03:55.551Z,17.30
2022-08-28T01:07:47.345Z,19.20
2022-08-28T01:11:36.277Z,18.80
2022-08-28T01:15:26.319Z,18.70
2022-08-28T01:19:16.198Z,17.50
2022-08-28T01:23:11.506Z,18.90
2022-08-28T01:27:00.397Z,19.60
2022-08-28T01:30:49.991Z,19.00
2022-08-28T01:34:42.116Z,19.20
2022-08-28T01:38:31.151Z,19.10
2022-08-28T01:42:21.281Z,19.80
2022-08-28T01:46:11.899Z,19.10
2022-08-28T01:50:01.681Z,18.40
2022-08-28T01:53:51.210Z,20.30
2022-08-28T01:57:42.917Z,19.70
2022-08-28T02:01:31.854Z,18.20
2022-08-28T02:05:20.941Z,19.20
2022-08-28T02:09:14.487Z,19.20
2022-08-28T02:13:04.197Z,18.20
2022-08-28T02:16:58.015Z,18.30
2022-08-28T02:20:47.070Z,19.50
2022-08-28T02:24:37.195Z,20.70
2022-08-28T02:28:27.438Z,19.30
2022-08-28T02:32:17.368Z,19.60
2022-08-28T02:36:06.303Z,21.00
2022-08-28T02:39:55.251Z,19.60
2022-08-28T02:43:45.930Z,19.90
2022-08-28T02:47:35.335Z,20.80
2022-08-28T02:51:26.379Z,21.50
2022-08-28T02:55:16.582Z,20.50
2022-08-28T02:59:05.883Z,21.50
2022-08-28T03:02:56.944Z,21.50
2022-08-28T03:06:45.934Z,19.50
2022-08-28T03:10:36.185Z,20.60
2022-08-28T03:14:26.283Z,21.20
2022-08-28T03:18:17.442Z,20.70
2022-08-28T03:22:07.924Z,21.30
2022-08-28T03:25:59.421Z,20.00
2022-08-28T03:29:48.659Z,20.80
2022-08-28T03:33:37.765Z,22.60
2022-08-28T03:37:33.041Z,21.90
2022-08-28T03:41:22.108Z,23.00
2022-08-28T03:45:12.155Z,23.70
2022-08-28T03:49:01.265Z,21.40
2022-08-28T03:52:51.838Z,25.10
2022-08-28T03:56:41.956Z,23.70
2022-08-28T04:00:33.760Z,25.30
2022-08-28T04:04:22.791Z,25.40
2022-08-28T04:08:11.883Z,25.40
2022-08-28T04:12:03.641Z,24.50
2022-08-28T04:15:54.758Z,24.60
2022-08-28T04:19:45.371Z,24.30
2022-08-28T04:23:35.392Z,25.00
2022-08-28T04:27:25.480Z,25.60
2022-08-28T04:31:14.748Z,25.90
2022-08-28T04:35:03.932Z,23.80
2022-08-28T04:38:54.526Z,25.00
2022-08-28T04:42:43.592Z,26.50
2022-08-28T04:46:33.726Z,25.30
2022-08-28T04:50:25.999Z,24.40
2022-08-28T04:54:15.462Z,26.20
2022-08-28T04:58:06.088Z,24.50
2022-08-28T05:01:58.110Z,25.20
2022-08-28T05:05:48.543Z,22.50
2022-08-28T05:09:37.799Z,24.20
2022-08-28T05:13:26.654Z,22.90
2022-08-28T05:17:22.075Z,25.70
2022-08-28T05:21:14.360Z,24.20
2022-08-28T05:25:03.839Z,23.40
2022-08-28T05:28:52.897Z,21.90
2022-08-28T05:32:43.512Z,23.10
2022-08-28T05:36:39.117Z,21.90
2022-08-28T05:40:28.228Z,23.50
2022-08-28T05:44:17.400Z,21.90
2022-08-28T05:48:06.719Z,21.30
2022-08-28T05:52:01.694Z,23.50
2022-08-28T05:55:52.118Z,23.10
2022-08-28T05:59:41.342Z,22.60
2022-08-28T06:03:31.639Z,23.20
2022-08-28T06:07:21.746Z,22.80
2022-08-28T06:11:14.688Z,21.70
2022-08-28T06:15:06.747Z,23.60
2022-08-28T06:18:56.552Z,22.80
2022-08-28T06:22:46.095Z,20.10
2022-08-28T06:26:41.917Z,21.10
2022-08-28T06:30:30.975Z,21.60
2022-08-28T06:34:22.589Z,20.60
2022-08-28T06:38:12.924Z,21.10
2022-08-28T06:42:04.398Z,21.60
2022-08-28T06:45:56.008Z,22.30
2022-08-28T06:49:52.738Z,20.80
2022-08-28T06:53:41.966Z,21.40
2022-08-28T06:57:31.255Z,19.00
2022-08-28T07:01:20.946Z,19.80
2022-08-28T07:05:10.440Z,19.00
2022-08-28T07:09:01.538Z,15.20
2022-08-28T07:12:53.257Z,20.40
2022-08-28T07:16:42.990Z,19.90
2022-08-28T07:24:17.827Z,18.70
2022-08-28T07:28:07.140Z,18.70
2022-08-28T07:31:56.745Z,18.30
2022-08-28T07:35:46.268Z,19.00
2022-08-28T07:39:35.910Z,18.70
2022-08-28T07:43:24.023Z,17.80
2022-08-28T07:47:13.328Z,17.80
2022-08-28T07:51:02.485Z,19.50
2022-08-28T07:54:51.727Z,17.00
2022-08-28T07:58:41.066Z,16.60
2022-08-28T08:02:30.391Z,16.00
2022-08-28T08:06:19.697Z,14.50
2022-08-28T08:10:08.921Z,16.20
2022-08-28T08:13:41.119Z,13.40
2022-08-28T08:17:31.418Z,16.40
2022-08-28T08:21:20.267Z,14.80
2022-08-28T08:25:09.657Z,13.90
2022-08-28T08:28:58.860Z,16.30
2022-08-28T08:32:47.943Z,15.60
2022-08-28T08:36:37.675Z,14.70
2022-08-28T08:40:26.748Z,15.40
2022-08-28T08:44:16.645Z,11.40
2022-08-28T08:48:21.734Z,14.00
2022-08-28T08:52:20.868Z,14.90
2022-08-28T08:56:34.746Z,14.50
2022-08-28T09:00:25.085Z,13.30
2022-08-28T09:04:29.343Z,13.70
2022-08-28T09:08:36.664Z,14.10
2022-08-28T09:12:26.847Z,13.80
2022-08-28T09:16:23.827Z,13.50
2022-08-28T09:20:13.673Z,14.50
2022-08-28T09:24:05.796Z,13.00
2022-08-28T09:28:02.913Z,13.10
2022-08-28T09:32:13.466Z,14.10
2022-08-28T09:36:15.115Z,13.20
2022-08-28T09:40:13.228Z,11.70
2022-08-28T09:44:08.572Z,14.90
2022-08-28T09:47:56.271Z,13.90
2022-08-28T09:51:45.503Z,13.80
2022-08-28T09:55:34.628Z,12.70
2022-08-28T09:59:29.862Z,14.00
2022-08-28T10:03:28.456Z,13.70
2022-08-28T10:07:35.463Z,13.00
2022-08-28T10:11:44.546Z,12.20
2022-08-28T10:15:53.857Z,13.40
2022-08-28T10:20:00.129Z,13.10
2022-08-28T10:24:00.329Z,13.90
2022-08-28T10:28:14.947Z,13.40
2022-08-28T10:32:16.526Z,13.40
2022-08-28T10:36:34.212Z,13.10
2022-08-28T10:40:42.799Z,13.50
2022-08-28T10:44:35.243Z,12.80
2022-08-28T10:48:25.962Z,13.00
2022-08-28T10:52:22.055Z,14.10
2022-08-28T10:56:12.556Z,14.20
2022-08-28T11:00:05.634Z,13.90
2022-08-28T11:04:00.764Z,12.70
2022-08-28T11:08:06.323Z,14.20
2022-08-28T11:12:01.551Z,13.20
2022-08-28T11:15:52.660Z,14.80
2022-08-28T11:19:57.638Z,14.40
2022-08-28T11:23:47.704Z,14.30
2022-08-28T11:27:45.541Z,14.50
2022-08-28T11:31:40.107Z,15.50
2022-08-28T11:35:41.061Z,14.90
2022-08-28T11:39:43.797Z,13.80
2022-08-28T11:43:37.237Z,13.30
2022-08-28T11:47:29.050Z,14.10
2022-08-28T11:51:37.139Z,14.00
2022-08-28T11:55:32.379Z,15.30
2022-08-28T11:59:23.476Z,13.20
2022-08-28T12:03:17.032Z,14.20
2022-08-28T12:07:25.193Z,15.50
2022-08-28T12:11:15.356Z,16.20
2022-08-28T12:15:07.864Z,15.00
2022-08-28T12:18:58.015Z,15.90
2022-08-28T12:22:47.503Z,14.40
2022-08-28T12:26:42.643Z,13.60
2022-08-28T12:30:35.178Z,14.70
2022-08-28T12:34:37.095Z,13.10
2022-08-28T12:38:33.376Z,12.30
2022-08-28T12:42:23.633Z,11.90
2022-08-28T12:46:19.963Z,10.80
2022-08-28T12:50:28.243Z,12.20
2022-08-28T12:54:23.078Z,10.20
2022-08-28T12:58:12.936Z,10.80
2022-08-28T13:02:05.626Z,9.60
2022-08-28T13:06:12.243Z,9.40
2022-08-28T13:10:02.602Z,7.60
2022-08-28T13:14:04.882Z,8.20
2022-08-28T13:17:56.928Z,7.60
2022-08-28T13:22:26.338Z,8.50
2022-08-28T13:26:18.345Z,6.80
2022-08-28T13:30:08.377Z,7.60
2022-08-28T13:33:57.963Z,7.60
2022-08-28T13:37:40.821Z,6.60
2022-08-28T13:41:29.541Z,7.80
2022-08-28T13:45:20.857Z,7.40
2022-08-28T13:49:01.835Z,7.50
2022-08-28T13:52:50.635Z,6.80
2022-08-28T13:56:29.323Z,6.70
2022-08-28T14:00:08.183Z,7.00
2022-08-28T14:03:56.079Z,7.10
2022-08-28T14:07:37.384Z,8.30
2022-08-28T14:11:26.453Z,8.00
2022-08-28T14:15:15.831Z,9.00
2022-08-28T14:18:44.367Z,7.70
2022-08-28T14:22:19.145Z,9.50
2022-08-28T14:26:07.757Z,10.40
2022-08-28T14:29:34.417Z,9.50
2022-08-28T14:33:25.277Z,10.30
2022-08-28T14:37:09.348Z,10.20
2022-08-28T14:40:57.233Z,8.40
2022-08-28T14:44:45.574Z,8.70
2022-08-28T14:48:34.532Z,10.40
2022-08-28T14:51:44.578Z,9.50
2022-08-28T14:55:23.750Z,10.10
2022-08-28T14:58:37.283Z,9.90
2022-08-28T15:02:21.539Z,10.10
2022-08-28T15:06:10.135Z,9.30
2022-08-28T15:09:59.752Z,8.40
2022-08-28T15:13:48.329Z,8.30
2022-08-28T15:17:36.810Z,8.90
2022-08-28T15:21:26.107Z,7.60
2022-08-28T15:24:56.207Z,8.00
2022-08-28T15:28:45.407Z,7.70
2022-08-28T15:32:15.903Z,8.40
2022-08-28T15:36:04.484Z,8.30
2022-08-28T15:39:31.472Z,6.90
2022-08-28T15:43:19.517Z,7.00
2022-08-28T15:46:51.170Z,7.30
2022-08-28T15:50:39.254Z,7.50
2022-08-28T15:54:27.375Z,6.50
2022-08-28T15:58:16.383Z,6.50
2022-08-28T16:01:57.592Z,5.80
2022-08-28T16:05:45.762Z,5.20
2022-08-28T16:09:33.941Z,4.20
2022-08-28T16:13:22.026Z,5.40
2022-08-28T16:17:11.105Z,5.40
2022-08-28T16:21:04.570Z,5.60
2022-08-28T16:24:53.794Z,5.20
2022-08-28T16:28:44.328Z,5.20
2022-08-28T16:32:33.409Z,4.10
2022-08-28T16:36:25.056Z,3.80
2022-08-28T16:40:15.037Z,4.40
2022-08-28T16:44:04.486Z,4.30
2022-08-28T16:47:47.715Z,4.90
2022-08-28T16:51:36.527Z,5.30
2022-08-28T16:55:25.321Z,5.40
2022-08-28T16:58:56.758Z,6.90
2022-08-28T17:02:35.909Z,7.30
2022-08-28T17:06:25.001Z,7.80
2022-08-28T17:10:13.811Z,10.00
2022-08-28T17:14:04.484Z,10.00
2022-08-28T17:17:57.428Z,9.90
2022-08-28T17:21:14.502Z,11.80
2022-08-28T17:25:01.954Z,10.40
2022-08-28T17:28:31.068Z,9.80
2022-08-28T17:32:13.201Z,10.10
2022-08-28T17:35:42.278Z,9.50
2022-08-28T17:39:05.761Z,7.40
2022-08-28T17:42:54.786Z,7.80
2022-08-28T17:46:23.152Z,8.50
2022-08-28T17:50:12.791Z,8.10
2022-08-28T17:53:47.421Z,8.70
2022-08-28T17:57:38.789Z,7.40
2022-08-28T18:01:28.075Z,8.70
2022-08-28T18:05:00.157Z,7.60
2022-08-28T18:08:51.936Z,7.40
2022-08-28T18:12:31.875Z,7.40
2022-08-28T18:15:43.993Z,7.10
2022-08-28T18:19:20.407Z,7.50
2022-08-28T18:23:11.585Z,6.90
2022-08-28T18:27:01.983Z,7.20
2022-08-28T18:30:24.568Z,7.50
2022-08-28T18:34:13.439Z,6.10
2022-08-28T18:37:29.359Z,6.90
2022-08-28T18:40:43.718Z,7.80
2022-08-28T18:44:31.924Z,7.40
2022-08-28T18:48:03.510Z,7.50
2022-08-28T18:51:36.453Z,7.70
2022-08-28T18:54:56.002Z,7.90
2022-08-28T18:58:29.471Z,6.30
2022-08-28T19:02:10.029Z,8.00
2022-08-28T19:05:48.654Z,8.90
2022-08-28T19:09:39.851Z,8.60
2022-08-28T19:13:24.546Z,8.10
2022-08-28T19:16:26.201Z,8.90
2022-08-28T19:20:14.787Z,7.90
2022-08-28T19:24:05.519Z,8.90
2022-08-28T19:27:54.677Z,8.10
2022-08-28T19:31:48.049Z,9.80
2022-08-28T19:35:15.924Z,9.40
2022-08-28T19:38:37.816Z,10.20
2022-08-28T19:42:27.826Z,10.70
2022-08-28T19:45:48.556Z,9.10
2022-08-28T19:49:31.763Z,9.80
2022-08-28T19:53:24.161Z,12.30
2022-08-28T19:57:12.461Z,10.90
2022-08-28T20:01:00.194Z,11.50
2022-08-28T20:04:48.905Z,11.70
2022-08-28T20:08:20.431Z,12.20
2022-08-28T20:11:35.523Z,11.10
2022-08-28T20:15:04.585Z,11.70
2022-08-28T20:18:37.685Z,11.60
2022-08-28T20:22:27.542Z,12.30
2022-08-28T20:26:17.029Z,11.60
2022-08-28T20:30:10.642Z,12.30
2022-08-28T20:33:52.403Z,12.00
2022-08-28T20:37:33.169Z,11.40
2022-08-28T20:41:28.084Z,13.00
2022-08-28T20:45:16.331Z,14.40
2022-08-28T20:48:54.582Z,14.10
2022-08-28T20:52:42.854Z,16.10
2022-08-28T20:56:11.049Z,15.50
2022-08-28T21:00:04.783Z,14.60
2022-08-28T21:03:33.966Z,16.40
2022-08-28T21:07:22.505Z,15.60
2022-08-28T21:11:11.305Z,15.50
2022-08-28T21:15:01.050Z,15.40
2022-08-28T21:19:14.059Z,16.10
2022-08-28T21:22:57.336Z,15.40
2022-08-28T21:26:25.329Z,16.20
2022-08-28T21:29:57.161Z,15.10
2022-08-28T21:33:45.270Z,15.80
2022-08-28T21:37:13.389Z,14.10
2022-08-28T21:41:01.321Z,14.70
2022-08-28T21:44:40.207Z,13.30
2022-08-28T21:48:14.314Z,12.90
2022-08-28T21:52:02.663Z,12.40
2022-08-28T21:55:52.064Z,11.20
2022-08-28T21:59:38.064Z,10.60
2022-08-28T22:03:17.779Z,10.30
2022-08-28T22:07:05.788Z,8.70
2022-08-28T22:10:55.010Z,8.40
2022-08-28T22:14:40.615Z,8.20
2022-08-28T22:18:08.640Z,8.80
2022-08-28T22:21:32.992Z,8.30
2022-08-28T22:25:01.363Z,9.30
2022-08-28T22:28:50.011Z,9.20
2022-08-28T22:32:17.791Z,7.90
2022-08-28T22:36:05.805Z,7.80
2022-08-28T22:39:14.746Z,8.30
2022-08-28T22:42:57.450Z,7.60
2022-08-28T22:46:45.310Z,10.30
2022-08-28T22:50:05.295Z,8.60
2022-08-28T22:53:53.416Z,8.60
2022-08-28T22:57:41.336Z,9.50
2022-08-28T23:00:59.769Z,8.50
2022-08-28T23:04:51.956Z,8.30
2022-08-28T23:08:25.474Z,9.30
2022-08-28T23:12:13.195Z,10.20
2022-08-28T23:15:34.177Z,9.00
2022-08-28T23:19:22.167Z,9.10
2022-08-28T23:23:10.707Z,10.20
2022-08-28T23:27:14.067Z,8.90
2022-08-28T23:31:02.921Z,9.00
2022-08-28T23:34:43.867Z,8.10
2022-08-28T23:38:24.159Z,9.00
2022-08-28T23:42:14.343Z,8.30
2022-08-28T23:45:42.348Z,9.40
2022-08-28T23:49:30.398Z,7.30
2022-08-28T23:53:09.094Z,5.20
2022-08-28T23:56:55.878Z,8.30
